Time;durP1;ratioP1;P1;durP2;ratioP2;P2;SDS_P1;SDS_P2;PMS_P1;PMS_P2;Temp;Humidity;BMP_temperature;BMP_pressure;BME280_temperature;BME280_humidity;BME280_pressure;Samples;Min_cycle;Max_cycle;Signal;HPM_P1;HPM_P2
2021/12/22 00:01:27;;;;;;;277.58;119.00;;;-0.40;99.90;;;;;;4969986;28;20023;-71
2021/12/22 00:03:54;;;;;;;254.95;107.82;;;-0.40;99.90;;;;;;4970117;28;20094;-72
2021/12/22 00:06:22;;;;;;;275.75;114.57;;;-0.40;99.90;;;;;;4980861;28;20432;-71
2021/12/22 00:08:49;;;;;;;277.58;121.95;;;-0.40;99.90;;;;;;4969917;28;20022;-72
2021/12/22 00:11:15;;;;;;;337.98;136.90;;;-0.40;99.90;;;;;;4969700;28;20046;-71
2021/12/22 00:13:41;;;;;;;335.20;128.98;;;-0.40;99.90;;;;;;4969990;28;20066;-71
2021/12/22 00:16:07;;;;;;;299.67;113.20;;;-0.40;99.90;;;;;;4971210;28;20022;-72
2021/12/22 00:18:34;;;;;;;300.58;116.18;;;-0.30;99.90;;;;;;4973126;28;20027;-72
2021/12/22 00:21:00;;;;;;;338.23;129.90;;;-0.30;99.90;;;;;;4972915;28;20114;-72
2021/12/22 00:23:26;;;;;;;410.42;152.70;;;-0.40;99.90;;;;;;4973186;28;20027;-72
2021/12/22 00:25:52;;;;;;;234.48;94.63;;;-0.40;99.90;;;;;;4973032;28;20381;-72
2021/12/22 00:28:18;;;;;;;226.30;89.15;;;-0.40;99.90;;;;;;4972697;28;20033;-72
2021/12/22 00:30:45;;;;;;;219.82;90.20;;;-0.40;99.90;;;;;;4973107;28;20023;-71
2021/12/22 00:33:12;;;;;;;300.77;117.55;;;-0.40;99.90;;;;;;4972777;28;20019;-72
2021/12/22 00:35:45;;;;;;;310.38;119.03;;;-0.40;99.90;;;;;;4972523;28;20377;-72
2021/12/22 00:38:16;;;;;;;293.92;116.25;;;-0.40;99.90;;;;;;4973036;28;20018;-72
2021/12/22 00:40:43;;;;;;;282.20;112.60;;;-0.40;99.90;;;;;;4970186;28;20027;-71
2021/12/22 00:43:09;;;;;;;284.52;114.70;;;-0.40;99.90;;;;;;4972709;28;20027;-72
2021/12/22 00:45:36;;;;;;;254.68;103.50;;;-0.30;99.90;;;;;;4972750;28;20031;-72
2021/12/22 00:48:05;;;;;;;225.10;97.97;;;-0.30;99.90;;;;;;4972625;28;20023;-72
2021/12/22 00:50:31;;;;;;;233.48;101.95;;;-0.30;99.90;;;;;;4972491;28;20046;-71
2021/12/22 00:52:57;;;;;;;279.20;121.28;;;-0.30;99.90;;;;;;4972691;28;20470;-72
2021/12/22 00:55:23;;;;;;;266.42;111.25;;;-0.30;99.90;;;;;;4972215;28;20123;-72
2021/12/22 00:57:50;;;;;;;237.75;101.30;;;-0.30;99.90;;;;;;4972805;28;20112;-72
2021/12/22 01:00:18;;;;;;;221.45;92.53;;;-0.30;99.90;;;;;;4972315;28;20058;-73
2021/12/22 01:02:46;;;;;;;227.85;91.32;;;-0.40;99.90;;;;;;4972868;28;20078;-72
2021/12/22 01:05:16;;;;;;;214.68;86.28;;;-0.30;99.90;;;;;;4972509;28;20031;-71
2021/12/22 01:07:47;;;;;;;200.98;85.18;;;-0.40;99.90;;;;;;4972374;28;20026;-72
2021/12/22 01:10:14;;;;;;;204.55;87.07;;;-0.30;99.90;;;;;;4972438;28;20034;-72
2021/12/22 01:12:40;;;;;;;191.73;78.60;;;-0.40;99.90;;;;;;4972147;28;20043;-72
2021/12/22 01:15:11;;;;;;;221.43;88.00;;;-0.40;99.90;;;;;;4972075;28;20034;-72
2021/12/22 01:17:41;;;;;;;204.60;85.32;;;-0.30;99.90;;;;;;4972194;28;20019;-73
2021/12/22 01:20:23;;;;;;;193.35;80.68;;;-0.30;99.90;;;;;;4972083;28;20058;-72
2021/12/22 01:22:50;;;;;;;193.55;78.43;;;-0.30;99.90;;;;;;4970274;28;20023;-72
2021/12/22 01:25:19;;;;;;;170.95;73.88;;;-0.40;99.90;;;;;;4971793;28;20483;-72
2021/12/22 01:27:45;;;;;;;176.88;74.68;;;-0.40;99.90;;;;;;4972065;28;20829;-72
2021/12/22 01:30:16;;;;;;;164.70;69.70;;;-0.30;99.90;;;;;;4971989;28;20462;-72
2021/12/22 01:32:42;;;;;;;169.23;73.65;;;-0.30;99.90;;;;;;4969185;28;20478;-72
2021/12/22 01:35:11;;;;;;;181.18;78.85;;;-0.30;99.90;;;;;;4972441;28;20062;-72
2021/12/22 01:37:37;;;;;;;161.48;71.57;;;-0.30;99.90;;;;;;4972971;28;20080;-72
2021/12/22 01:40:05;;;;;;;152.07;70.43;;;-0.30;99.90;;;;;;4972221;28;20113;-72
2021/12/22 01:42:31;;;;;;;165.48;72.25;;;-0.20;99.90;;;;;;4971858;28;20378;-72
2021/12/22 01:50:39;;;;;;;173.20;76.88;;;-0.20;99.90;;;;;;4971646;28;20105;-72
2021/12/22 01:53:23;;;;;;;182.43;84.75;;;-0.10;99.90;;;;;;4971777;28;20039;-72
2021/12/22 01:56:05;;;;;;;178.95;76.93;;;-0.10;99.90;;;;;;4972245;28;20042;-71
2021/12/22 01:58:37;;;;;;;170.20;73.63;;;-0.10;99.90;;;;;;4971985;28;20141;-73
2021/12/22 02:01:05;;;;;;;159.95;72.32;;;-0.10;99.90;;;;;;4971997;28;20031;-72
2021/12/22 02:03:31;;;;;;;141.30;60.88;;;-0.10;99.90;;;;;;4971549;28;20435;-71
2021/12/22 02:05:57;;;;;;;155.98;65.82;;;-0.10;99.90;;;;;;4971847;28;20050;-71
2021/12/22 02:08:23;;;;;;;153.52;67.60;;;0.00;99.90;;;;;;4971900;28;20461;-72
2021/12/22 02:10:49;;;;;;;155.95;66.78;;;0.00;99.90;;;;;;4971761;28;20481;-71
2021/12/22 02:13:21;;;;;;;151.35;61.33;;;0.00;99.90;;;;;;4971722;28;20484;-71
2021/12/22 02:15:48;;;;;;;133.25;56.80;;;0.00;99.90;;;;;;4972471;28;20054;-71
2021/12/22 02:18:19;;;;;;;130.63;57.05;;;0.00;99.90;;;;;;4972257;28;20034;-72
2021/12/22 02:20:47;;;;;;;124.70;55.22;;;0.00;99.90;;;;;;4972505;28;20113;-72
2021/12/22 02:23:13;;;;;;;119.10;53.83;;;0.00;99.90;;;;;;4972610;28;20034;-72
2021/12/22 02:25:47;;;;;;;115.55;53.50;;;0.00;99.90;;;;;;4972589;28;20035;-72
2021/12/22 02:28:20;;;;;;;111.35;50.90;;;0.00;99.90;;;;;;4972095;28;20039;-72
2021/12/22 02:30:46;;;;;;;107.13;49.40;;;0.00;99.90;;;;;;4972533;28;20060;-72
2021/12/22 02:36:07;;;;;;;109.32;52.10;;;0.00;99.90;;;;;;4971998;28;20019;-72
2021/12/22 02:38:36;;;;;;;100.75;48.40;;;0.00;99.90;;;;;;4971557;28;20103;-72
2021/12/22 02:41:02;;;;;;;121.25;53.58;;;0.00;99.90;;;;;;4972054;28;20035;-72
2021/12/22 02:43:32;;;;;;;126.70;56.47;;;0.00;99.90;;;;;;4972304;28;20026;-72
2021/12/22 02:45:59;;;;;;;134.02;57.80;;;0.00;99.90;;;;;;4971242;28;20046;-72
2021/12/22 02:48:29;;;;;;;119.65;52.65;;;0.00;99.90;;;;;;4971073;28;20062;-71
2021/12/22 02:50:57;;;;;;;107.85;47.88;;;0.00;99.90;;;;;;4971033;28;20054;-72
2021/12/22 02:53:29;;;;;;;103.60;47.20;;;-0.10;99.90;;;;;;4971037;28;20042;-72
2021/12/22 02:56:11;;;;;;;102.40;48.03;;;-0.10;99.90;;;;;;4972475;28;20106;-72
2021/12/22 02:58:55;;;;;;;92.75;44.65;;;0.00;99.90;;;;;;4972332;28;20037;-72
2021/12/22 03:08:56;;;;;;;78.22;33.95;;;0.00;99.90;;;;;;4971963;28;20031;-72
2021/12/22 03:11:22;;;;;;;109.80;47.22;;;-0.10;99.90;;;;;;4971780;28;20075;-72
2021/12/22 03:13:48;;;;;;;94.82;43.38;;;-0.10;99.90;;;;;;4971397;28;20398;-72
2021/12/22 03:16:17;;;;;;;120.82;48.28;;;-0.10;99.90;;;;;;4971789;28;20023;-72
2021/12/22 03:18:43;;;;;;;113.70;48.50;;;-0.10;99.90;;;;;;4971715;28;20037;-71
2021/12/22 03:21:20;;;;;;;143.52;59.75;;;-0.10;99.90;;;;;;4971653;28;20022;-72
2021/12/22 03:23:47;;;;;;;140.38;60.92;;;-0.20;99.90;;;;;;4970906;28;20449;-72
2021/12/22 03:26:16;;;;;;;133.27;58.47;;;-0.20;99.90;;;;;;4971433;28;20110;-72
2021/12/22 03:28:42;;;;;;;179.23;78.03;;;-0.20;99.90;;;;;;4971321;28;20118;-71
2021/12/22 03:31:08;;;;;;;161.50;73.13;;;-0.30;99.90;;;;;;4971701;28;20110;-71
2021/12/22 03:33:34;;;;;;;158.25;72.63;;;-0.30;99.90;;;;;;4971635;28;20121;-71
2021/12/22 03:36:00;;;;;;;113.43;54.63;;;-0.30;99.90;;;;;;4971467;28;20110;-72
2021/12/22 03:38:26;;;;;;;115.70;49.88;;;-0.30;99.90;;;;;;4971722;28;20436;-72
2021/12/22 03:40:52;;;;;;;111.88;50.03;;;-0.30;99.90;;;;;;4970992;28;20069;-72
2021/12/22 03:43:18;;;;;;;101.82;43.45;;;-0.30;99.90;;;;;;4971007;28;20084;-72
2021/12/22 03:45:44;;;;;;;116.28;51.20;;;-0.40;99.90;;;;;;4971406;28;20466;-71
2021/12/22 03:48:10;;;;;;;114.90;50.78;;;-0.40;99.90;;;;;;4971322;28;20114;-72
2021/12/22 03:50:36;;;;;;;117.90;54.15;;;-0.40;99.90;;;;;;4972337;28;20050;-72
2021/12/22 03:53:02;;;;;;;135.50;60.38;;;-0.40;99.90;;;;;;4974420;28;20038;-71
2021/12/22 03:55:27;;;;;;;113.60;52.05;;;-0.50;99.90;;;;;;4974593;28;20462;-72
2021/12/22 03:57:53;;;;;;;104.03;51.67;;;-0.50;99.90;;;;;;4974050;28;20026;-72
2021/12/22 04:00:19;;;;;;;121.53;54.50;;;-0.50;99.90;;;;;;4974488;28;20373;-71
2021/12/22 04:02:45;;;;;;;124.50;55.25;;;-0.50;99.90;;;;;;4974453;28;20046;-71
2021/12/22 04:05:12;;;;;;;128.48;58.20;;;-0.50;99.90;;;;;;4974293;28;20019;-71
2021/12/22 04:07:37;;;;;;;131.32;58.75;;;-0.50;99.90;;;;;;4974737;28;20080;-72
2021/12/22 04:10:19;;;;;;;182.25;77.18;;;-0.50;99.90;;;;;;4974207;28;20035;-72
2021/12/22 04:12:46;;;;;;;179.48;78.05;;;-0.50;99.90;;;;;;4974309;28;20035;-72
2021/12/22 04:15:12;;;;;;;174.68;77.55;;;-0.50;99.90;;;;;;4973920;28;20577;-72
2021/12/22 04:17:37;;;;;;;159.73;71.38;;;-0.50;99.90;;;;;;4973988;28;20031;-71
2021/12/22 04:20:03;;;;;;;159.68;69.75;;;-0.50;99.90;;;;;;4974405;28;20066;-72
2021/12/22 04:22:29;;;;;;;209.23;81.07;;;-0.60;99.90;;;;;;4974445;28;20035;-72
2021/12/22 04:24:55;;;;;;;183.98;74.13;;;-0.60;99.90;;;;;;4974201;28;20045;-72
2021/12/22 04:27:21;;;;;;;163.68;68.53;;;-0.60;99.90;;;;;;4974238;28;20031;-71
2021/12/22 04:29:46;;;;;;;162.15;71.20;;;-0.60;99.90;;;;;;4974341;28;20025;-72
2021/12/22 04:32:12;;;;;;;187.68;76.93;;;-0.60;99.90;;;;;;4973872;28;20429;-72
2021/12/22 04:34:38;;;;;;;177.32;74.93;;;-0.60;99.90;;;;;;4973475;28;20022;-72
2021/12/22 04:37:04;;;;;;;152.07;69.75;;;-0.70;99.90;;;;;;4973732;28;20100;-72
2021/12/22 04:39:32;;;;;;;151.50;66.82;;;-0.60;99.90;;;;;;4974099;28;20103;-72
2021/12/22 04:41:59;;;;;;;146.02;65.00;;;-0.60;99.90;;;;;;4973977;28;20077;-71
2021/12/22 04:44:25;;;;;;;166.55;74.22;;;-0.60;99.90;;;;;;4973524;28;20026;-72
2021/12/22 04:46:50;;;;;;;177.55;78.22;;;-0.60;99.90;;;;;;4973977;28;20026;-72
2021/12/22 04:49:16;;;;;;;167.93;72.78;;;-0.60;99.90;;;;;;4974004;28;20053;-71
2021/12/22 04:51:49;;;;;;;149.73;65.25;;;-0.60;99.90;;;;;;4972701;28;20103;-71
2021/12/22 04:54:42;;;;;;;157.82;65.82;;;-0.60;99.90;;;;;;4973901;28;20023;-72
2021/12/22 04:57:03;;;;;;;153.43;67.78;;;-0.50;99.90;;;;;;4973627;28;20035;-72
2021/12/22 04:59:29;;;;;;;185.48;79.25;;;-0.50;99.90;;;;;;4973652;28;20377;-72
2021/12/22 05:01:57;;;;;;;154.98;71.47;;;-0.50;99.90;;;;;;4972881;28;20035;-71
2021/12/22 05:04:23;;;;;;;149.02;71.22;;;-0.50;99.90;;;;;;4973640;28;20385;-71
2021/12/22 05:06:48;;;;;;;166.40;76.80;;;-0.50;99.90;;;;;;4973212;28;20492;-71
2021/12/22 05:09:14;;;;;;;165.65;76.93;;;-0.60;99.90;;;;;;4973692;28;20549;-72
2021/12/22 05:11:40;;;;;;;267.42;114.90;;;-0.60;99.90;;;;;;4973173;28;20027;-72
2021/12/22 05:14:08;;;;;;;364.98;156.20;;;-0.60;99.90;;;;;;4972959;28;20428;-72
2021/12/22 05:16:34;;;;;;;343.52;147.90;;;-0.60;99.90;;;;;;4972807;28;20732;-72
2021/12/22 05:19:12;;;;;;;195.10;86.60;;;-0.60;99.90;;;;;;4972917;28;20474;-72
2021/12/22 05:21:38;;;;;;;142.55;69.13;;;-0.60;99.90;;;;;;4972748;28;20023;-72
2021/12/22 05:24:04;;;;;;;167.75;71.85;;;-0.60;99.90;;;;;;4973192;28;20551;-72
2021/12/22 05:26:30;;;;;;;157.35;70.15;;;-0.60;99.90;;;;;;4973110;28;20465;-72
2021/12/22 05:28:56;;;;;;;171.38;78.18;;;-0.50;99.90;;;;;;4973066;28;20038;-73
2021/12/22 05:31:23;;;;;;;544.45;257.27;;;-0.50;99.90;;;;;;4973394;28;20071;-72
2021/12/22 05:33:50;;;;;;;233.07;107.55;;;-0.50;99.90;;;;;;4972830;28;20058;-72
2021/12/22 05:36:16;;;;;;;200.00;90.25;;;-0.50;99.90;;;;;;4973034;28;20043;-72
2021/12/22 05:38:42;;;;;;;164.32;72.82;;;-0.50;99.90;;;;;;4973001;28;20076;-72
2021/12/22 05:41:08;;;;;;;166.82;77.53;;;-0.50;99.90;;;;;;4972790;28;20027;-72
2021/12/22 05:43:34;;;;;;;131.80;60.72;;;-0.50;99.90;;;;;;4972555;28;20126;-73
2021/12/22 05:46:00;;;;;;;200.98;92.97;;;-0.60;99.90;;;;;;4973180;28;20034;-72
2021/12/22 05:48:27;;;;;;;295.73;141.52;;;-0.60;99.90;;;;;;4973027;28;20470;-71
2021/12/22 05:50:57;;;;;;;156.52;73.43;;;-0.50;99.90;;;;;;4973024;28;20119;-71
2021/12/22 05:53:27;;;;;;;250.43;104.22;;;-0.50;99.90;;;;;;4973104;28;20041;-72
2021/12/22 05:55:53;;;;;;;169.20;75.93;;;-0.50;99.90;;;;;;4972696;28;20030;-71
2021/12/22 05:58:20;;;;;;;201.48;87.53;;;-0.40;99.90;;;;;;4973040;28;20084;-71
2021/12/22 06:00:46;;;;;;;188.68;81.65;;;-0.40;99.90;;;;;;4973113;28;20110;-72
2021/12/22 06:03:11;;;;;;;178.90;77.32;;;-0.40;99.90;;;;;;4972842;28;20117;-72
2021/12/22 06:05:38;;;;;;;193.30;91.68;;;-0.40;99.90;;;;;;4972836;28;20027;-71
2021/12/22 06:08:05;;;;;;;197.68;90.47;;;-0.40;99.90;;;;;;4972473;28;20102;-73
2021/12/22 06:10:34;;;;;;;194.88;87.35;;;-0.30;99.90;;;;;;4972935;28;20076;-72
2021/12/22 06:13:05;;;;;;;166.85;75.85;;;-0.30;99.90;;;;;;4971570;28;20144;-72
2021/12/22 06:15:31;;;;;;;160.50;70.63;;;-0.30;99.90;;;;;;4972769;28;20030;-71
2021/12/22 06:17:59;;;;;;;150.15;65.95;;;-0.30;99.90;;;;;;4972896;28;20077;-71
2021/12/22 06:20:25;;;;;;;139.68;63.53;;;-0.30;99.90;;;;;;4972327;28;20027;-72
2021/12/22 06:22:51;;;;;;;158.48;72.93;;;-0.20;99.90;;;;;;4971345;28;20031;-71
2021/12/22 06:25:18;;;;;;;179.80;81.50;;;-0.20;99.90;;;;;;4972011;28;20118;-72
2021/12/22 06:27:44;;;;;;;185.65;83.03;;;-0.20;99.90;;;;;;4972382;28;20377;-71
2021/12/22 06:30:10;;;;;;;184.32;81.65;;;-0.10;99.90;;;;;;4972325;28;20517;-71
2021/12/22 06:32:36;;;;;;;181.82;85.70;;;-0.20;99.90;;;;;;4972140;28;20035;-72
2021/12/22 06:35:01;;;;;;;158.50;76.35;;;-0.20;99.90;;;;;;4972683;28;20485;-72
2021/12/22 06:37:27;;;;;;;144.57;67.57;;;-0.10;99.90;;;;;;4972070;28;20027;-72
2021/12/22 06:39:53;;;;;;;161.27;74.53;;;-0.20;99.90;;;;;;4972410;28;20457;-72
2021/12/22 06:42:19;;;;;;;172.68;82.88;;;-0.20;99.90;;;;;;4972205;28;20038;-72
2021/12/22 06:44:45;;;;;;;173.70;82.50;;;-0.20;99.90;;;;;;4971968;28;20035;-72
2021/12/22 06:47:10;;;;;;;167.68;80.38;;;-0.20;99.90;;;;;;4972132;28;20031;-71
2021/12/22 06:49:37;;;;;;;185.27;79.70;;;-0.20;99.90;;;;;;4972360;28;20027;-72
2021/12/22 06:52:04;;;;;;;162.80;75.38;;;-0.20;99.90;;;;;;4972139;28;20054;-72
2021/12/22 06:54:30;;;;;;;173.02;77.90;;;-0.10;99.90;;;;;;4972041;28;20382;-72
2021/12/22 06:56:55;;;;;;;168.05;76.50;;;-0.10;99.90;;;;;;4972304;28;20113;-72
2021/12/22 06:59:21;;;;;;;162.02;72.72;;;-0.10;99.90;;;;;;4972130;28;20117;-72
2021/12/22 07:01:48;;;;;;;174.13;75.15;;;0.00;99.90;;;;;;4971985;28;20087;-72
2021/12/22 07:04:14;;;;;;;131.70;61.38;;;0.00;99.90;;;;;;4971990;28;20031;-72
2021/12/22 07:06:39;;;;;;;185.18;83.63;;;0.00;99.90;;;;;;4971891;28;20119;-72
2021/12/22 07:09:07;;;;;;;178.02;78.22;;;0.00;99.90;;;;;;4972025;28;20027;-72
2021/12/22 07:11:37;;;;;;;213.70;96.85;;;0.00;99.90;;;;;;4971880;28;20084;-71
2021/12/22 07:14:06;;;;;;;290.05;130.70;;;0.10;99.90;;;;;;4971749;28;20053;-71
2021/12/22 07:16:32;;;;;;;246.93;113.18;;;0.10;99.90;;;;;;4971746;28;20489;-72
2021/12/22 07:18:58;;;;;;;239.05;108.30;;;0.10;99.90;;;;;;4971804;28;20099;-72
2021/12/22 07:21:24;;;;;;;225.45;103.00;;;0.20;99.90;;;;;;4971750;28;20419;-72
2021/12/22 07:23:50;;;;;;;494.75;224.38;;;0.20;99.90;;;;;;4971788;28;20031;-72
2021/12/22 07:26:16;;;;;;;305.27;134.80;;;0.10;99.90;;;;;;4975041;28;20057;-72
2021/12/22 07:28:45;;;;;;;226.38;100.43;;;0.10;99.90;;;;;;4975246;28;20098;-72
2021/12/22 07:31:11;;;;;;;200.27;90.70;;;0.20;99.90;;;;;;4975414;28;20029;-72
2021/12/22 07:33:37;;;;;;;192.55;90.10;;;0.20;99.90;;;;;;4974721;28;20157;-72
2021/12/22 07:36:05;;;;;;;228.05;102.43;;;0.30;99.90;;;;;;4975226;28;20034;-72
2021/12/22 07:38:40;;;;;;;134.75;64.50;;;0.30;99.90;;;;;;4975239;28;20023;-72
2021/12/22 07:41:08;;;;;;;126.15;59.80;;;0.30;99.90;;;;;;4975001;28;20026;-72
2021/12/22 07:43:35;;;;;;;121.28;58.40;;;0.30;99.90;;;;;;4975210;28;20035;-73
2021/12/22 07:46:02;;;;;;;117.38;56.88;;;0.30;99.90;;;;;;4975102;28;20043;-72
2021/12/22 07:48:27;;;;;;;137.73;65.85;;;0.40;99.90;;;;;;4975095;28;20031;-72
2021/12/22 07:50:54;;;;;;;146.93;69.07;;;0.40;99.90;;;;;;4974773;28;20089;-72
2021/12/22 07:53:20;;;;;;;121.00;60.05;;;0.40;99.90;;;;;;4974482;28;20039;-72
2021/12/22 07:55:46;;;;;;;123.32;57.47;;;0.40;99.90;;;;;;4975118;28;20023;-71
2021/12/22 07:58:12;;;;;;;146.45;64.43;;;0.50;99.90;;;;;;4974841;28;20035;-72
2021/12/22 08:00:38;;;;;;;156.05;73.10;;;0.50;99.90;;;;;;4974392;28;20546;-72
2021/12/22 08:03:05;;;;;;;188.23;89.10;;;0.50;99.90;;;;;;4975040;28;20035;-72
2021/12/22 08:05:33;;;;;;;197.20;89.05;;;0.60;99.90;;;;;;4974587;28;20027;-72
2021/12/22 08:08:00;;;;;;;357.60;175.18;;;0.60;99.90;;;;;;4974449;28;20433;-72
2021/12/22 08:10:26;;;;;;;316.17;147.85;;;0.70;99.90;;;;;;4974322;28;20093;-72
2021/12/22 08:12:52;;;;;;;326.92;156.63;;;0.80;99.90;;;;;;4974525;28;20034;-72
2021/12/22 08:15:18;;;;;;;317.63;152.20;;;0.80;99.90;;;;;;4974191;28;20046;-72
2021/12/22 08:17:43;;;;;;;273.50;130.68;;;0.90;99.90;;;;;;4974809;28;20033;-72
2021/12/22 08:20:10;;;;;;;305.73;144.18;;;0.80;99.90;;;;;;4973836;28;20106;-73
2021/12/22 08:22:36;;;;;;;322.38;151.77;;;0.90;99.90;;;;;;4974114;28;20031;-73
2021/12/22 08:25:03;;;;;;;292.67;139.48;;;0.90;99.90;;;;;;4974453;28;20081;-73
2021/12/22 08:27:29;;;;;;;332.52;154.98;;;1.00;99.90;;;;;;4974524;28;20027;-73
2021/12/22 08:29:55;;;;;;;293.17;135.77;;;1.00;99.90;;;;;;4974212;28;20102;-73
2021/12/22 08:32:21;;;;;;;277.88;134.57;;;1.00;99.90;;;;;;4974060;28;20165;-73
2021/12/22 08:34:52;;;;;;;336.45;166.70;;;1.00;99.90;;;;;;4974412;28;20066;-73
2021/12/22 08:40:03;;;;;;;290.92;132.82;;;1.10;99.90;;;;;;4974030;28;20084;-73
2021/12/22 08:42:29;;;;;;;300.98;139.65;;;1.10;99.90;;;;;;4973681;28;20039;-72
2021/12/22 08:44:55;;;;;;;221.05;103.97;;;1.10;99.90;;;;;;4974455;28;20038;-73
2021/12/22 08:47:21;;;;;;;185.48;87.68;;;1.20;99.90;;;;;;4974063;28;20019;-73
2021/12/22 08:49:46;;;;;;;204.05;86.43;;;1.20;99.90;;;;;;4973910;28;20027;-73
2021/12/22 08:52:12;;;;;;;185.32;87.65;;;1.20;99.90;;;;;;4973446;28;20047;-72
2021/12/22 08:54:38;;;;;;;212.32;98.03;;;1.20;99.90;;;;;;4974312;28;20104;-73
2021/12/22 08:57:04;;;;;;;230.02;110.15;;;1.30;99.90;;;;;;4973480;28;20082;-73
2021/12/22 08:59:30;;;;;;;299.45;139.38;;;1.40;99.90;;;;;;4973806;28;20027;-73
2021/12/22 09:01:57;;;;;;;320.20;154.18;;;1.40;99.90;;;;;;4973914;28;20355;-73
2021/12/22 09:04:23;;;;;;;332.63;159.27;;;1.40;99.90;;;;;;4973665;28;20023;-73
2021/12/22 09:06:51;;;;;;;294.27;140.50;;;1.40;99.90;;;;;;4973767;28;20027;-73
2021/12/22 09:09:18;;;;;;;271.55;136.88;;;1.40;99.90;;;;;;4973847;28;20027;-73
2021/12/22 09:11:44;;;;;;;287.85;134.77;;;1.50;99.90;;;;;;4973480;28;20035;-73
2021/12/22 09:14:10;;;;;;;307.60;140.30;;;1.50;99.90;;;;;;4973589;28;20087;-73
2021/12/22 09:16:38;;;;;;;280.05;129.18;;;1.50;99.90;;;;;;4973762;28;20041;-73
2021/12/22 09:19:06;;;;;;;302.10;149.95;;;1.50;99.90;;;;;;4973508;28;20031;-73
2021/12/22 09:21:32;;;;;;;294.95;142.23;;;1.60;99.90;;;;;;4973595;28;20450;-73
2021/12/22 09:23:58;;;;;;;273.48;133.52;;;1.60;99.90;;;;;;4973704;28;20027;-73
2021/12/22 09:26:24;;;;;;;243.88;119.05;;;1.70;99.90;;;;;;4973621;28;20073;-73
2021/12/22 09:28:51;;;;;;;190.55;88.82;;;1.80;99.90;;;;;;4973646;28;20587;-73
2021/12/22 09:31:18;;;;;;;184.52;83.93;;;1.60;99.90;;;;;;4972652;28;20023;-73
2021/12/22 09:33:44;;;;;;;170.95;81.45;;;1.70;99.90;;;;;;4972930;28;20063;-73
2021/12/22 09:36:11;;;;;;;250.60;110.13;;;1.80;99.90;;;;;;4972942;28;20389;-73
2021/12/22 09:38:38;;;;;;;272.70;128.35;;;1.80;99.90;;;;;;4972811;28;20052;-73
2021/12/22 09:41:07;;;;;;;195.25;93.95;;;1.90;99.90;;;;;;4973100;28;20102;-73
2021/12/22 09:43:33;;;;;;;211.35;104.70;;;1.90;99.90;;;;;;4973482;28;20462;-73
2021/12/22 09:46:05;;;;;;;202.40;99.47;;;2.10;99.90;;;;;;4972861;28;20078;-73
2021/12/22 09:48:53;;;;;;;209.75;110.20;;;2.10;99.90;;;;;;4972999;28;20035;-73
2021/12/22 09:54:10;;;;;;;157.63;76.70;;;2.20;99.90;;;;;;4951848;28;20047;-73
2021/12/22 09:56:39;;;;;;;193.27;96.13;;;2.40;99.90;;;;;;4972850;28;20046;-73
2021/12/22 09:59:05;;;;;;;181.93;87.25;;;3.00;99.90;;;;;;4972471;28;20073;-73
2021/12/22 10:01:31;;;;;;;223.63;112.65;;;2.90;99.90;;;;;;4972941;28;20424;-73
2021/12/22 10:03:59;;;;;;;318.63;159.82;;;3.10;99.90;;;;;;4972705;28;20031;-73
2021/12/22 10:06:26;;;;;;;273.33;149.30;;;3.10;99.90;;;;;;4972270;28;20031;-74
2021/12/22 10:09:00;;;;;;;257.38;125.40;;;3.00;99.90;;;;;;4972580;28;20088;-73
2021/12/22 10:11:30;;;;;;;178.23;85.22;;;3.20;99.90;;;;;;4972764;28;20080;-73
2021/12/22 10:13:56;;;;;;;154.30;75.25;;;4.40;99.90;;;;;;4972354;28;20051;-73
2021/12/22 10:16:25;;;;;;;187.00;90.90;;;5.10;99.90;;;;;;4972201;28;20442;-71
2021/12/22 10:19:10;;;;;;;134.73;70.90;;;6.20;99.90;;;;;;4972674;28;20133;-71
2021/12/22 10:22:00;;;;;;;143.40;75.03;;;6.70;99.90;;;;;;4972371;28;20023;-71
2021/12/22 10:24:43;;;;;;;175.52;89.05;;;6.70;99.90;;;;;;4972198;28;20452;-71
2021/12/22 10:27:21;;;;;;;85.97;44.30;;;7.00;99.90;;;;;;4972346;28;20525;-71
2021/12/22 10:29:47;;;;;;;120.80;62.78;;;6.50;98.50;;;;;;4972830;28;20592;-71
2021/12/22 10:32:16;;;;;;;102.53;51.65;;;6.00;99.90;;;;;;4971938;28;20039;-72
2021/12/22 10:34:57;;;;;;;58.25;31.88;;;7.30;97.70;;;;;;4972237;28;20027;-71
2021/12/22 10:37:40;;;;;;;55.63;30.13;;;8.30;92.70;;;;;;4972248;28;20023;-73
2021/12/22 10:40:31;;;;;;;98.25;49.28;;;8.50;90.10;;;;;;4972166;28;20022;-74
2021/12/22 10:42:58;;;;;;;118.53;56.23;;;9.40;89.70;;;;;;4979511;28;20058;-74
2021/12/22 10:45:26;;;;;;;121.28;56.70;;;9.70;89.40;;;;;;4972211;28;20023;-74
2021/12/22 10:50:44;;;;;;;87.35;43.67;;;9.70;86.00;;;;;;4971851;28;20054;-73
2021/12/22 10:53:15;;;;;;;151.15;73.28;;;9.50;86.60;;;;;;4972266;28;20039;-73
2021/12/22 10:55:43;;;;;;;70.93;34.30;;;10.00;86.30;;;;;;4971752;28;20030;-73
2021/12/22 10:58:32;;;;;;;64.88;35.42;;;9.70;82.40;;;;;;4972039;28;20031;-72
2021/12/22 11:01:07;;;;;;;68.03;34.95;;;10.10;83.00;;;;;;4971256;28;20427;-71
2021/12/22 11:04:01;;;;;;;92.60;47.55;;;10.00;80.30;;;;;;4971789;28;20039;-71
2021/12/22 11:06:30;;;;;;;72.32;39.83;;;9.60;80.20;;;;;;4971769;28;20038;-71
2021/12/22 11:09:13;;;;;;;94.82;50.80;;;9.50;80.30;;;;;;4971769;28;20106;-72
2021/12/22 11:11:43;;;;;;;127.72;57.15;;;9.80;78.90;;;;;;4972042;28;20088;-71
2021/12/22 11:14:23;;;;;;;161.35;84.60;;;9.20;79.50;;;;;;4971418;28;20569;-71
2021/12/22 11:17:03;;;;;;;167.15;84.35;;;8.60;81.20;;;;;;4971576;28;20034;-71
2021/12/22 11:19:33;;;;;;;99.57;51.13;;;8.60;80.70;;;;;;4971493;28;20031;-72
2021/12/22 11:22:05;;;;;;;113.63;65.63;;;8.80;79.60;;;;;;4971768;28;20031;-71
2021/12/22 11:24:34;;;;;;;76.95;41.80;;;8.90;78.50;;;;;;4971297;28;20026;-71
2021/12/22 11:27:00;;;;;;;87.50;47.30;;;8.50;77.10;;;;;;4971420;28;20027;-71
2021/12/22 11:29:27;;;;;;;79.60;41.70;;;8.50;78.50;;;;;;4971697;28;20118;-71
2021/12/22 11:31:53;;;;;;;81.93;41.60;;;8.40;77.90;;;;;;4971448;28;20035;-72
2021/12/22 11:34:21;;;;;;;77.65;35.85;;;8.40;79.00;;;;;;4971133;28;20393;-71
2021/12/22 11:36:49;;;;;;;57.65;31.27;;;7.90;75.30;;;;;;4971312;28;20031;-71
2021/12/22 11:39:15;;;;;;;57.80;28.42;;;7.80;74.60;;;;;;4971374;28;20385;-71
2021/12/22 11:41:54;;;;;;;38.97;22.15;;;7.80;75.80;;;;;;4971375;28;20031;-73
2021/12/22 11:44:22;;;;;;;53.95;26.42;;;7.70;74.60;;;;;;4971559;28;20034;-73
2021/12/22 11:46:48;;;;;;;56.13;24.92;;;7.60;74.00;;;;;;4971679;28;20030;-73
2021/12/22 11:49:18;;;;;;;47.38;23.25;;;7.10;77.40;;;;;;4971424;28;20035;-73
2021/12/22 11:51:44;;;;;;;42.45;21.48;;;6.50;78.70;;;;;;4971507;28;20059;-73
2021/12/22 11:54:10;;;;;;;35.63;17.08;;;5.90;80.80;;;;;;4971177;28;20045;-72
2021/12/22 11:56:42;;;;;;;60.92;30.75;;;5.50;80.80;;;;;;4971306;28;20080;-72
2021/12/22 11:59:24;;;;;;;41.45;21.98;;;5.20;83.50;;;;;;4971154;28;20027;-72
2021/12/22 12:02:17;;;;;;;42.97;22.65;;;4.90;85.10;;;;;;4971495;28;20027;-73
2021/12/22 12:04:43;;;;;;;48.10;25.80;;;4.90;87.10;;;;;;4977376;28;20432;-72
2021/12/22 12:07:09;;;;;;;42.05;21.52;;;4.60;87.10;;;;;;4971228;28;20034;-73
2021/12/22 12:09:34;;;;;;;37.92;17.70;;;4.50;87.20;;;;;;4971345;28;20060;-73
2021/12/22 12:12:04;;;;;;;32.17;14.38;;;4.30;86.70;;;;;;4972515;28;20027;-72
2021/12/22 12:23:29;;;;;;;24.15;9.80;;;4.10;85.20;;;;;;4974363;28;20101;-73
2021/12/22 12:25:57;;;;;;;74.85;33.60;;;3.90;84.20;;;;;;4974465;28;20118;-73
2021/12/22 12:28:24;;;;;;;65.53;29.83;;;3.90;86.60;;;;;;4974781;28;20062;-73
2021/12/22 12:30:55;;;;;;;32.35;16.00;;;3.80;87.20;;;;;;4974458;28;20106;-73
2021/12/22 12:33:32;;;;;;;40.83;19.52;;;3.80;88.40;;;;;;4973857;28;20478;-72
2021/12/22 12:36:05;;;;;;;55.75;21.38;;;3.80;89.00;;;;;;4974263;28;20027;-73
2021/12/22 12:38:40;;;;;;;44.28;17.35;;;3.80;84.70;;;;;;4974129;28;20110;-72
2021/12/22 12:41:14;;;;;;;49.85;23.90;;;3.90;84.60;;;;;;4972914;28;20027;-73
2021/12/22 12:43:43;;;;;;;30.25;14.10;;;3.80;86.20;;;;;;4973603;28;20059;-72
2021/12/22 12:46:34;;;;;;;92.68;28.77;;;3.80;86.60;;;;;;4973472;28;20046;-73
2021/12/22 12:49:03;;;;;;;33.15;14.50;;;3.70;85.30;;;;;;4973183;28;20035;-73
2021/12/22 12:51:33;;;;;;;96.05;49.40;;;3.70;85.00;;;;;;4973078;28;20122;-72
2021/12/22 12:54:17;;;;;;;41.97;18.83;;;3.60;85.90;;;;;;4972764;28;20042;-73
2021/12/22 12:56:58;;;;;;;96.75;48.60;;;3.60;86.80;;;;;;4973286;28;20027;-72
2021/12/22 12:59:38;;;;;;;56.25;24.48;;;3.60;88.70;;;;;;4973508;28;20035;-72
2021/12/22 13:02:18;;;;;;;119.95;54.65;;;3.60;90.00;;;;;;4972669;28;20027;-73